Time;durP1;ratioP1;P1;durP2;ratioP2;P2;SDS_P1;SDS_P2;PMS_P1;PMS_P2;Temp;Humidity;BMP_temperature;BMP_pressure;BME280_temperature;BME280_humidity;BME280_pressure;Samples;Min_cycle;Max_cycle;Signal;HPM_P1;HPM_P2
2022/10/01 00:02:04;;;;;;;18.63;9.43;;;;;;;;;;5005855;28;20513;-69
2022/10/01 00:04:31;;;;;;;15.25;7.93;;;;;;;;;;5005834;28;20041;-67
2022/10/01 00:07:01;;;;;;;15.57;8.10;;;;;;;;;;5006238;28;20860;-68
2022/10/01 00:09:28;;;;;;;17.30;8.23;;;;;;;;;;4987557;28;20176;-68
2022/10/01 00:11:55;;;;;;;17.40;7.80;;;;;;;;;;5008244;28;20038;-70
2022/10/01 00:14:22;;;;;;;17.70;8.20;;;;;;;;;;5006736;28;20499;-66
2022/10/01 00:16:48;;;;;;;15.55;8.55;;;;;;;;;;5007170;28;20053;-67
2022/10/01 00:19:15;;;;;;;22.08;8.52;;;;;;;;;;5004998;28;20041;-68
2022/10/01 00:21:41;;;;;;;21.00;8.07;;;;;;;;;;5006009;28;20046;-67
2022/10/01 00:24:11;;;;;;;17.48;7.72;;;;;;;;;;5007127;28;20049;-67
2022/10/01 00:26:38;;;;;;;19.90;7.97;;;;;;;;;;5004588;28;20033;-67
2022/10/01 00:29:06;;;;;;;20.80;8.13;;;;;;;;;;5005978;28;20168;-67
2022/10/01 00:31:33;;;;;;;17.15;8.25;;;;;;;;;;5005368;28;20191;-67
2022/10/01 00:34:02;;;;;;;11.88;7.55;;;;;;;;;;5007276;28;20434;-67
2022/10/01 00:36:28;;;;;;;18.17;8.40;;;;;;;;;;5007902;28;20049;-66
2022/10/01 00:38:59;;;;;;;14.23;8.35;;;;;;;;;;5007548;28;20049;-69
2022/10/01 00:41:26;;;;;;;20.63;8.55;;;;;;;;;;5006509;28;20141;-68
2022/10/01 00:43:56;;;;;;;17.55;7.70;;;;;;;;;;5007298;28;20091;-67
2022/10/01 00:46:52;;;;;;;16.95;8.15;;;;;;;;;;5006571;28;20088;-68
2022/10/01 00:49:23;;;;;;;14.80;8.50;;;;;;;;;;4993272;28;20124;-68
2022/10/01 00:51:52;;;;;;;15.13;7.78;;;;;;;;;;5006855;28;20080;-68
2022/10/01 00:54:21;;;;;;;16.20;7.78;;;;;;;;;;4991691;28;20061;-67
2022/10/01 00:56:49;;;;;;;16.98;8.40;;;;;;;;;;4986747;28;20459;-68
2022/10/01 00:59:16;;;;;;;16.40;7.43;;;;;;;;;;5007107;28;20038;-68
2022/10/01 01:01:43;;;;;;;12.52;7.45;;;;;;;;;;4986505;28;20033;-69
2022/10/01 01:04:16;;;;;;;19.85;8.27;;;;;;;;;;5004870;28;20651;-69
2022/10/01 01:06:50;;;;;;;14.13;7.60;;;;;;;;;;5006107;28;20046;-67
2022/10/01 01:09:16;;;;;;;19.02;8.18;;;;;;;;;;5005978;28;20041;-68
2022/10/01 01:11:51;;;;;;;13.35;7.70;;;;;;;;;;5005698;28;20498;-68
2022/10/01 01:14:23;;;;;;;16.35;8.38;;;;;;;;;;4986110;28;20089;-68
2022/10/01 01:16:58;;;;;;;16.92;7.93;;;;;;;;;;5006432;28;20046;-67
2022/10/01 01:19:43;;;;;;;13.30;7.32;;;;;;;;;;5004402;28;20494;-68
2022/10/01 01:22:12;;;;;;;14.38;8.02;;;;;;;;;;5007305;28;20049;-66
2022/10/01 01:24:54;;;;;;;17.13;8.38;;;;;;;;;;5010277;28;20289;-70
2022/10/01 01:27:30;;;;;;;15.32;8.60;;;;;;;;;;5009521;28;20046;-67
2022/10/01 01:30:05;;;;;;;16.70;8.48;;;;;;;;;;5009551;28;20049;-68
2022/10/01 01:32:47;;;;;;;15.65;7.75;;;;;;;;;;5005100;28;20096;-67
2022/10/01 01:35:25;;;;;;;17.08;8.15;;;;;;;;;;5010448;28;20045;-68
2022/10/01 01:37:56;;;;;;;13.07;7.10;;;;;;;;;;5009314;28;20128;-68
2022/10/01 01:40:23;;;;;;;18.05;8.18;;;;;;;;;;5008610;28;20041;-68
2022/10/01 01:42:50;;;;;;;14.48;7.22;;;;;;;;;;5011152;28;20041;-67
2022/10/01 01:45:19;;;;;;;14.70;7.95;;;;;;;;;;5011409;28;20402;-67
2022/10/01 01:47:47;;;;;;;17.83;7.25;;;;;;;;;;5010427;28;20224;-67
2022/10/01 01:50:15;;;;;;;12.55;7.55;;;;;;;;;;4993513;28;20045;-66
2022/10/01 01:52:42;;;;;;;16.17;7.63;;;;;;;;;;5014270;28;20093;-68
2022/10/01 01:55:09;;;;;;;18.38;7.82;;;;;;;;;;5016446;28;20037;-67
2022/10/01 01:57:43;;;;;;;22.33;9.00;;;;;;;;;;5013838;28;20050;-66
2022/10/01 02:00:11;;;;;;;15.35;7.78;;;;;;;;;;5010223;28;20097;-68
2022/10/01 02:02:40;;;;;;;21.70;8.27;;;;;;;;;;5007873;28;20045;-67
2022/10/01 02:05:09;;;;;;;16.27;7.78;;;;;;;;;;5010868;28;20116;-67
2022/10/01 02:07:48;;;;;;;18.10;8.77;;;;;;;;;;5008402;28;20049;-68
2022/10/01 02:10:35;;;;;;;20.40;8.73;;;;;;;;;;5009407;28;20045;-65
2022/10/01 02:13:07;;;;;;;15.48;8.82;;;;;;;;;;5008087;28;20791;-65
2022/10/01 02:15:35;;;;;;;15.05;8.57;;;;;;;;;;5008081;28;20061;-65
2022/10/01 02:18:05;;;;;;;16.67;8.45;;;;;;;;;;5008156;28;20045;-64
2022/10/01 02:20:38;;;;;;;16.58;8.25;;;;;;;;;;5008586;28;20041;-63
2022/10/01 02:23:11;;;;;;;12.75;8.38;;;;;;;;;;5009028;28;20029;-66
2022/10/01 02:25:40;;;;;;;18.70;8.25;;;;;;;;;;5010294;28;20079;-64
2022/10/01 02:28:08;;;;;;;17.15;7.97;;;;;;;;;;5009475;28;20518;-66
2022/10/01 02:30:36;;;;;;;17.73;8.20;;;;;;;;;;5007634;28;20067;-64
2022/10/01 02:33:04;;;;;;;18.80;8.15;;;;;;;;;;4989690;28;20445;-68
2022/10/01 02:35:32;;;;;;;13.45;7.35;;;;;;;;;;5007821;28;20049;-67
2022/10/01 02:38:00;;;;;;;11.82;6.90;;;;;;;;;;4990035;28;20037;-67
2022/10/01 02:40:28;;;;;;;18.70;6.80;;;;;;;;;;5007874;28;20050;-69
2022/10/01 02:42:57;;;;;;;13.13;7.40;;;;;;;;;;5008529;28;20767;-70
2022/10/01 02:45:24;;;;;;;18.08;7.30;;;;;;;;;;5008728;28;20073;-67
2022/10/01 02:47:54;;;;;;;18.80;7.18;;;;;;;;;;5008307;28;20072;-67
2022/10/01 02:50:23;;;;;;;16.23;7.22;;;;;;;;;;5007746;28;20137;-67
2022/10/01 02:52:58;;;;;;;17.17;6.93;;;;;;;;;;5005468;28;20040;-67
2022/10/01 02:55:30;;;;;;;16.70;6.63;;;;;;;;;;5007312;28;20513;-66
2022/10/01 02:57:57;;;;;;;14.88;6.43;;;;;;;;;;5006426;28;20050;-67
2022/10/01 03:00:26;;;;;;;15.20;6.93;;;;;;;;;;5006718;28;20914;-67
2022/10/01 03:02:52;;;;;;;13.85;6.82;;;;;;;;;;5006477;28;20864;-67
2022/10/01 03:05:19;;;;;;;13.50;6.20;;;;;;;;;;5007384;28;20504;-65
2022/10/01 03:07:47;;;;;;;14.77;6.75;;;;;;;;;;5005637;28;20283;-66
2022/10/01 03:10:15;;;;;;;16.38;6.95;;;;;;;;;;4989165;28;20041;-67
2022/10/01 03:12:43;;;;;;;13.52;6.57;;;;;;;;;;5007049;28;20096;-66
2022/10/01 03:15:14;;;;;;;13.07;6.50;;;;;;;;;;5008331;28;20042;-65
2022/10/01 03:17:40;;;;;;;16.52;7.03;;;;;;;;;;5005769;28;20417;-66
2022/10/01 03:20:08;;;;;;;18.65;6.85;;;;;;;;;;4988997;28;20101;-66
2022/10/01 03:22:35;;;;;;;25.52;7.35;;;;;;;;;;5005075;28;20033;-67
2022/10/01 03:25:01;;;;;;;17.85;7.13;;;;;;;;;;5005681;28;20033;-66
2022/10/01 03:27:28;;;;;;;12.68;7.25;;;;;;;;;;5003126;28;20042;-67
2022/10/01 03:29:54;;;;;;;13.18;7.70;;;;;;;;;;5004386;28;20609;-66
2022/10/01 03:32:21;;;;;;;16.40;7.53;;;;;;;;;;4987587;28;20109;-67
2022/10/01 03:34:48;;;;;;;18.38;7.53;;;;;;;;;;5007580;28;20213;-66
2022/10/01 03:37:15;;;;;;;14.27;7.85;;;;;;;;;;5008543;28;20057;-66
2022/10/01 03:39:41;;;;;;;13.00;7.25;;;;;;;;;;5007333;28;20564;-66
2022/10/01 03:42:08;;;;;;;17.90;7.25;;;;;;;;;;5008117;28;20488;-67
2022/10/01 03:44:34;;;;;;;13.75;7.72;;;;;;;;;;5006342;28;20045;-68
2022/10/01 03:47:01;;;;;;;16.30;7.05;;;;;;;;;;5006439;28;20057;-67
2022/10/01 03:49:27;;;;;;;13.40;7.13;;;;;;;;;;5004393;28;20076;-68
2022/10/01 03:51:54;;;;;;;13.48;7.20;;;;;;;;;;5006094;28;20038;-65
2022/10/01 03:54:21;;;;;;;17.33;7.55;;;;;;;;;;5005203;28;20096;-66
2022/10/01 03:56:48;;;;;;;13.73;7.38;;;;;;;;;;5004626;28;20782;-68
2022/10/01 03:59:14;;;;;;;14.18;6.80;;;;;;;;;;5001512;28;20038;-67
2022/10/01 04:01:41;;;;;;;16.50;7.35;;;;;;;;;;5002874;28;20045;-66
2022/10/01 04:04:07;;;;;;;12.90;7.68;;;;;;;;;;5004609;28;20038;-66
2022/10/01 04:06:34;;;;;;;15.43;7.15;;;;;;;;;;4985098;28;20522;-66
2022/10/01 04:09:01;;;;;;;19.65;8.50;;;;;;;;;;5005434;28;20099;-67
2022/10/01 04:11:27;;;;;;;15.27;8.25;;;;;;;;;;4990438;28;20156;-66
2022/10/01 04:13:56;;;;;;;21.27;8.50;;;;;;;;;;5004856;28;20406;-66
2022/10/01 04:16:23;;;;;;;14.55;7.70;;;;;;;;;;5005254;28;20103;-67
2022/10/01 04:18:50;;;;;;;16.90;7.78;;;;;;;;;;5005269;28;20052;-67
2022/10/01 04:21:17;;;;;;;28.67;8.93;;;;;;;;;;5005548;28;20692;-67
2022/10/01 04:23:43;;;;;;;20.60;7.85;;;;;;;;;;5004077;28;20034;-66
2022/10/01 04:26:10;;;;;;;12.38;8.27;;;;;;;;;;5004463;28;20037;-67
2022/10/01 04:28:36;;;;;;;21.83;8.40;;;;;;;;;;5003372;28;20034;-66
2022/10/01 04:33:48;;;;;;;15.57;8.63;;;;;;;;;;5004136;28;20188;-66
2022/10/01 04:36:15;;;;;;;15.20;8.45;;;;;;;;;;5007388;28;20050;-66
2022/10/01 04:38:41;;;;;;;16.35;8.38;;;;;;;;;;4992173;28;21041;-66
2022/10/01 04:41:08;;;;;;;17.98;8.43;;;;;;;;;;4987993;28;20045;-66
2022/10/01 04:43:35;;;;;;;12.95;8.43;;;;;;;;;;5005228;28;20046;-66
2022/10/01 04:46:01;;;;;;;15.57;9.27;;;;;;;;;;5006711;28;20046;-65
2022/10/01 04:48:28;;;;;;;15.43;9.02;;;;;;;;;;5003169;28;20042;-65
2022/10/01 04:50:54;;;;;;;13.27;8.50;;;;;;;;;;4997472;28;20529;-64
2022/10/01 04:53:21;;;;;;;14.00;8.98;;;;;;;;;;5005042;28;20065;-66
2022/10/01 04:55:47;;;;;;;16.10;8.45;;;;;;;;;;5006784;28;20056;-66
2022/10/01 04:58:14;;;;;;;17.42;8.75;;;;;;;;;;5011305;28;20518;-66
2022/10/01 05:00:41;;;;;;;18.50;8.55;;;;;;;;;;5003615;28;20042;-66
2022/10/01 05:03:07;;;;;;;19.13;9.40;;;;;;;;;;4994095;28;20045;-67
2022/10/01 05:05:34;;;;;;;14.60;8.82;;;;;;;;;;5009976;28;20117;-65
2022/10/01 05:08:01;;;;;;;17.30;9.10;;;;;;;;;;5010183;28;20049;-66
2022/10/01 05:10:27;;;;;;;18.27;9.18;;;;;;;;;;5008575;28;20045;-66
2022/10/01 05:12:54;;;;;;;14.35;8.63;;;;;;;;;;5008552;28;20104;-65
2022/10/01 05:15:21;;;;;;;17.00;9.57;;;;;;;;;;5001804;28;20034;-67
2022/10/01 05:17:47;;;;;;;15.88;8.43;;;;;;;;;;5004529;28;20054;-67
2022/10/01 05:20:18;;;;;;;15.65;8.98;;;;;;;;;;5010109;28;21164;-65
2022/10/01 05:22:46;;;;;;;16.25;8.40;;;;;;;;;;5008282;28;20862;-64
2022/10/01 05:25:13;;;;;;;17.02;8.77;;;;;;;;;;5008044;28;20074;-64
2022/10/01 05:27:39;;;;;;;15.48;8.43;;;;;;;;;;5007580;28;20034;-64
2022/10/01 05:30:07;;;;;;;16.35;8.60;;;;;;;;;;5008535;28;20052;-65
2022/10/01 05:32:34;;;;;;;17.17;9.95;;;;;;;;;;5007902;28;20057;-65
2022/10/01 05:35:01;;;;;;;14.95;9.15;;;;;;;;;;5008906;28;20100;-66
2022/10/01 05:37:27;;;;;;;22.40;10.25;;;;;;;;;;5008960;28;20148;-65
2022/10/01 05:39:54;;;;;;;18.77;10.10;;;;;;;;;;5011038;28;20034;-66
2022/10/01 05:42:21;;;;;;;16.98;9.93;;;;;;;;;;5002582;28;20038;-66
2022/10/01 05:44:48;;;;;;;19.65;9.93;;;;;;;;;;5007845;28;20072;-66
2022/10/01 05:47:16;;;;;;;20.45;9.80;;;;;;;;;;5006664;28;20040;-65
2022/10/01 05:49:43;;;;;;;15.48;9.63;;;;;;;;;;5006998;28;20045;-66
2022/10/01 05:52:10;;;;;;;18.40;9.80;;;;;;;;;;5007374;28;20091;-66
2022/10/01 05:54:37;;;;;;;17.23;9.60;;;;;;;;;;5005735;28;20038;-66
2022/10/01 05:57:04;;;;;;;22.65;10.50;;;;;;;;;;5006259;28;20057;-65
2022/10/01 05:59:31;;;;;;;16.45;9.35;;;;;;;;;;5006019;28;21417;-66
2022/10/01 06:01:57;;;;;;;14.88;9.65;;;;;;;;;;5005836;28;20464;-65
2022/10/01 06:04:24;;;;;;;23.73;9.85;;;;;;;;;;5006594;28;20146;-66
2022/10/01 06:06:50;;;;;;;18.73;9.95;;;;;;;;;;5007306;28;20044;-65
2022/10/01 06:09:17;;;;;;;15.48;9.80;;;;;;;;;;5006591;28;20195;-66
2022/10/01 06:11:45;;;;;;;19.08;9.73;;;;;;;;;;5006002;28;20042;-65
2022/10/01 06:14:12;;;;;;;21.48;10.27;;;;;;;;;;5006289;28;20060;-65
2022/10/01 06:16:38;;;;;;;17.05;10.98;;;;;;;;;;5009776;28;20050;-66
2022/10/01 06:19:05;;;;;;;18.02;10.75;;;;;;;;;;5007971;28;20041;-65
2022/10/01 06:21:32;;;;;;;17.35;11.18;;;;;;;;;;5008466;28;20180;-66
2022/10/01 06:23:58;;;;;;;19.63;10.85;;;;;;;;;;5009031;28;20072;-66
2022/10/01 06:26:25;;;;;;;20.00;11.65;;;;;;;;;;5006986;28;20941;-66
2022/10/01 06:28:52;;;;;;;25.10;11.15;;;;;;;;;;5007888;28;20046;-66
2022/10/01 06:31:19;;;;;;;21.02;12.10;;;;;;;;;;5006152;28;20623;-66
2022/10/01 06:33:46;;;;;;;20.92;12.77;;;;;;;;;;5004166;28;20116;-67
2022/10/01 06:36:13;;;;;;;23.08;12.30;;;;;;;;;;5006602;28;20552;-66
2022/10/01 06:38:39;;;;;;;23.95;12.95;;;;;;;;;;5006955;28;20049;-66
2022/10/01 06:41:07;;;;;;;21.55;11.50;;;;;;;;;;5006743;28;20082;-66
2022/10/01 06:43:33;;;;;;;21.58;11.82;;;;;;;;;;5004862;28;20598;-67
2022/10/01 06:46:04;;;;;;;20.95;11.70;;;;;;;;;;5006588;28;20065;-66
2022/10/01 06:48:31;;;;;;;19.40;11.52;;;;;;;;;;5006989;28;20052;-66
2022/10/01 06:50:58;;;;;;;24.88;11.48;;;;;;;;;;4988195;28;20117;-67
2022/10/01 06:53:27;;;;;;;18.80;11.57;;;;;;;;;;5004937;28;20663;-67
2022/10/01 06:55:54;;;;;;;16.90;10.80;;;;;;;;;;5005679;28;20626;-67
2022/10/01 06:58:21;;;;;;;22.10;11.00;;;;;;;;;;5006734;28;20060;-66
2022/10/01 07:00:49;;;;;;;14.05;10.00;;;;;;;;;;5006779;28;20056;-66
2022/10/01 07:03:19;;;;;;;24.48;11.43;;;;;;;;;;5007352;28;20037;-65
2022/10/01 07:05:46;;;;;;;15.70;10.68;;;;;;;;;;5007279;28;20037;-65
2022/10/01 07:08:13;;;;;;;18.77;10.43;;;;;;;;;;4993941;28;20053;-66
2022/10/01 07:10:40;;;;;;;14.18;9.68;;;;;;;;;;5008738;28;20037;-67
2022/10/01 07:13:10;;;;;;;14.98;10.80;;;;;;;;;;5006288;28;20615;-67
2022/10/01 07:15:37;;;;;;;18.35;11.00;;;;;;;;;;5006936;28;20046;-67
2022/10/01 07:18:04;;;;;;;16.98;11.23;;;;;;;;;;5009177;28;20057;-65
2022/10/01 07:20:34;;;;;;;17.15;11.02;;;;;;;;;;5006243;28;20029;-65
2022/10/01 07:23:02;;;;;;;17.15;10.27;;;;;;;;;;5006929;28;20048;-65
2022/10/01 07:25:29;;;;;;;18.33;10.52;;;;;;;;;;5007003;28;20819;-65
2022/10/01 07:27:56;;;;;;;16.48;11.02;;;;;;;;;;5005985;28;20052;-66
2022/10/01 07:30:22;;;;;;;18.02;11.13;;;;;;;;;;5006518;28;20045;-65
2022/10/01 07:32:49;;;;;;;20.20;11.25;;;;;;;;;;4987582;28;20509;-65
2022/10/01 07:35:16;;;;;;;23.10;11.10;;;;;;;;;;5006639;28;20041;-65
2022/10/01 07:37:43;;;;;;;23.95;10.73;;;;;;;;;;5004459;28;20053;-65
2022/10/01 07:40:10;;;;;;;18.95;11.02;;;;;;;;;;5005149;28;20532;-66
2022/10/01 07:42:37;;;;;;;16.10;10.40;;;;;;;;;;5004626;28;20041;-65
2022/10/01 07:45:05;;;;;;;17.83;11.02;;;;;;;;;;5007553;28;20038;-64
2022/10/01 07:47:32;;;;;;;20.35;11.35;;;;;;;;;;5005799;28;20038;-65
2022/10/01 07:49:58;;;;;;;23.08;11.77;;;;;;;;;;5006733;28;20044;-66
2022/10/01 07:52:25;;;;;;;17.45;11.60;;;;;;;;;;4998946;28;20466;-64
2022/10/01 07:54:52;;;;;;;19.65;10.65;;;;;;;;;;5008109;28;20045;-65
2022/10/01 07:57:19;;;;;;;18.45;10.93;;;;;;;;;;5004182;28;20792;-66
2022/10/01 07:59:45;;;;;;;16.73;10.48;;;;;;;;;;5007468;28;20036;-64
2022/10/01 08:02:16;;;;;;;15.35;10.02;;;;;;;;;;5006949;28;20038;-64
2022/10/01 08:07:28;;;;;;;17.63;11.27;;;;;;;;;;5006829;28;20044;-65
2022/10/01 08:09:56;;;;;;;20.40;11.30;;;;;;;;;;5006701;28;20037;-64
2022/10/01 08:12:24;;;;;;;23.52;11.10;;;;;;;;;;5005875;28;20045;-64
2022/10/01 08:14:51;;;;;;;20.25;11.07;;;;;;;;;;5008411;28;20034;-65
2022/10/01 08:17:18;;;;;;;16.92;10.57;;;;;;;;;;5005864;28;20076;-63
2022/10/01 08:19:45;;;;;;;16.25;9.90;;;;;;;;;;5006650;28;20142;-64
2022/10/01 08:22:12;;;;;;;20.42;10.95;;;;;;;;;;5005623;28;20036;-64
2022/10/01 08:24:38;;;;;;;19.55;10.23;;;;;;;;;;5005875;28;20050;-63
2022/10/01 08:27:05;;;;;;;18.52;10.15;;;;;;;;;;4992177;28;20038;-64
2022/10/01 08:29:32;;;;;;;15.95;9.85;;;;;;;;;;5004769;28;20045;-64
2022/10/01 08:31:59;;;;;;;16.25;10.13;;;;;;;;;;5008725;28;20117;-64
2022/10/01 08:34:25;;;;;;;20.00;10.68;;;;;;;;;;5009906;28;20041;-64
2022/10/01 08:36:52;;;;;;;16.48;9.98;;;;;;;;;;5010401;28;20091;-63
2022/10/01 08:39:19;;;;;;;16.92;9.70;;;;;;;;;;5006020;28;20501;-65
2022/10/01 08:41:49;;;;;;;14.52;9.77;;;;;;;;;;5009046;28;20171;-64
2022/10/01 08:44:20;;;;;;;19.38;10.50;;;;;;;;;;5010768;28;20049;-65
2022/10/01 08:46:47;;;;;;;17.83;9.80;;;;;;;;;;5009284;28;20053;-64
2022/10/01 08:49:41;;;;;;;19.27;10.18;;;;;;;;;;5011207;28;20053;-64
2022/10/01 08:52:22;;;;;;;16.63;9.70;;;;;;;;;;5004692;28;20049;-65
2022/10/01 08:54:56;;;;;;;19.00;10.45;;;;;;;;;;5010181;28;20168;-65
2022/10/01 08:57:24;;;;;;;15.23;9.15;;;;;;;;;;5008733;28;20058;-65
2022/10/01 08:59:56;;;;;;;20.27;10.57;;;;;;;;;;5010700;28;20076;-64
2022/10/01 09:02:24;;;;;;;21.73;11.13;;;;;;;;;;5008688;28;20050;-65
2022/10/01 09:04:53;;;;;;;25.05;10.65;;;;;;;;;;4989817;28;20037;-65
2022/10/01 09:07:20;;;;;;;18.30;10.48;;;;;;;;;;5007346;28;20048;-65
2022/10/01 09:09:55;;;;;;;20.75;10.63;;;;;;;;;;5011624;28;20045;-64
2022/10/01 09:12:42;;;;;;;21.98;11.27;;;;;;;;;;5009085;28;20034;-65
2022/10/01 09:15:47;;;;;;;18.92;10.48;;;;;;;;;;5010457;28;20128;-65
2022/10/01 09:18:32;;;;;;;17.63;10.68;;;;;;;;;;4937657;29;20061;-64
2022/10/01 09:20:59;;;;;;;17.95;10.13;;;;;;;;;;4936093;28;20047;-64
2022/10/01 09:23:37;;;;;;;15.82;9.82;;;;;;;;;;4979814;28;20034;-64
2022/10/01 09:26:05;;;;;;;15.57;10.82;;;;;;;;;;5011251;28;20056;-64
2022/10/01 09:28:35;;;;;;;21.40;11.10;;;;;;;;;;5009409;28;20049;-64
2022/10/01 09:31:11;;;;;;;17.02;11.20;;;;;;;;;;5011449;28;21096;-63
2022/10/01 09:33:41;;;;;;;18.30;10.52;;;;;;;;;;5011135;28;20094;-64
2022/10/01 09:36:07;;;;;;;15.75;10.00;;;;;;;;;;5011033;28;20052;-64
2022/10/01 09:38:34;;;;;;;22.77;10.95;;;;;;;;;;5012391;28;20045;-64
2022/10/01 09:41:00;;;;;;;17.00;10.43;;;;;;;;;;5015248;28;20075;-65
2022/10/01 09:43:34;;;;;;;19.00;10.05;;;;;;;;;;5012377;28;20052;-65
2022/10/01 09:46:05;;;;;;;17.83;10.10;;;;;;;;;;5012935;28;20038;-65
2022/10/01 09:48:58;;;;;;;18.02;10.75;;;;;;;;;;5009161;28;20491;-64
2022/10/01 09:51:31;;;;;;;15.85;10.50;;;;;;;;;;5006377;28;20362;-64
2022/10/01 09:53:58;;;;;;;16.83;10.85;;;;;;;;;;5010045;28;20042;-65
2022/10/01 09:56:35;;;;;;;17.70;11.55;;;;;;;;;;5008736;28;20530;-64
2022/10/01 09:59:04;;;;;;;23.00;12.05;;;;;;;;;;5009587;28;20049;-64
2022/10/01 10:01:39;;;;;;;18.33;11.65;;;;;;;;;;5003850;28;20034;-64
2022/10/01 10:04:06;;;;;;;20.80;11.70;;;;;;;;;;5008025;28;20045;-64
2022/10/01 10:06:32;;;;;;;17.33;11.02;;;;;;;;;;5007685;28;20427;-64
2022/10/01 10:09:00;;;;;;;16.35;10.25;;;;;;;;;;5009060;28;20079;-65
2022/10/01 10:11:30;;;;;;;17.30;9.85;;;;;;;;;;4998702;28;20065;-65
2022/10/01 10:14:03;;;;;;;20.55;11.80;;;;;;;;;;5007200;28;20053;-64
2022/10/01 10:16:37;;;;;;;19.02;11.43;;;;;;;;;;5006592;28;20050;-64
2022/10/01 10:19:08;;;;;;;18.27;11.35;;;;;;;;;;5007201;28;20049;-65
2022/10/01 10:21:35;;;;;;;19.27;10.63;;;;;;;;;;5007077;28;20076;-65
2022/10/01 10:24:06;;;;;;;19.20;11.55;;;;;;;;;;4989829;28;20037;-65
2022/10/01 10:26:34;;;;;;;21.02;11.30;;;;;;;;;;5008302;28;20128;-64
2022/10/01 10:29:02;;;;;;;23.85;11.77;;;;;;;;;;4988791;28;20033;-63
2022/10/01 10:31:35;;;;;;;19.58;11.88;;;;;;;;;;5005254;28;20433;-63
2022/10/01 10:34:16;;;;;;;18.77;11.10;;;;;;;;;;5007422;28;20037;-65
2022/10/01 10:36:43;;;;;;;19.98;11.45;;;;;;;;;;5008699;28;20072;-65
2022/10/01 10:39:17;;;;;;;21.83;11.90;;;;;;;;;;5008169;28;20042;-67
2022/10/01 10:41:46;;;;;;;18.50;11.30;;;;;;;;;;5005229;28;20037;-65
2022/10/01 10:44:15;;;;;;;22.23;11.18;;;;;;;;;;5006844;28;20046;-65
2022/10/01 10:46:43;;;;;;;16.40;10.77;;;;;;;;;;5007400;28;20064;-65
2022/10/01 10:49:17;;;;;;;20.23;11.07;;;;;;;;;;5007795;28;20037;-65
2022/10/01 10:51:50;;;;;;;19.08;11.32;;;;;;;;;;5005460;28;20068;-66
2022/10/01 10:54:24;;;;;;;17.80;10.57;;;;;;;;;;5007497;28;20896;-65
2022/10/01 10:56:55;;;;;;;19.00;10.63;;;;;;;;;;5007504;28;20080;-65
2022/10/01 10:59:22;;;;;;;21.45;11.40;;;;;;;;;;5008163;28;20034;-63
2022/10/01 11:01:49;;;;;;;18.08;9.93;;;;;;;;;;5008139;28;20082;-64
2022/10/01 11:04:21;;;;;;;15.98;9.57;;;;;;;;;;5005098;28;20748;-65
2022/10/01 11:06:55;;;;;;;19.42;11.38;;;;;;;;;;5007458;28;20045;-64
2022/10/01 11:09:23;;;;;;;17.42;10.55;;;;;;;;;;5006042;28;20583;-65
2022/10/01 11:11:58;;;;;;;18.17;10.77;;;;;;;;;;5006857;28;20052;-65
2022/10/01 11:14:28;;;;;;;17.90;10.85;;;;;;;;;;5007256;28;20129;-64
2022/10/01 11:17:04;;;;;;;22.40;10.65;;;;;;;;;;5007075;28;20965;-65
2022/10/01 11:19:56;;;;;;;24.08;10.70;;;;;;;;;;5006139;28;20037;-65
2022/10/01 11:22:41;;;;;;;20.30;11.63;;;;;;;;;;5009249;28;20669;-63
2022/10/01 11:25:30;;;;;;;21.38;11.13;;;;;;;;;;5009901;28;20053;-64
2022/10/01 11:28:06;;;;;;;18.35;10.93;;;;;;;;;;5008037;28;21040;-65
2022/10/01 11:30:35;;;;;;;18.88;11.00;;;;;;;;;;5007110;28;20091;-64
2022/10/01 11:33:09;;;;;;;20.30;11.77;;;;;;;;;;5009773;28;20112;-65
2022/10/01 11:35:51;;;;;;;18.58;11.73;;;;;;;;;;5007031;28;20037;-67
2022/10/01 11:38:27;;;;;;;17.20;11.25;;;;;;;;;;5009340;28;20037;-65
2022/10/01 11:41:10;;;;;;;19.52;10.93;;;;;;;;;;5007236;28;20046;-66
2022/10/01 11:43:43;;;;;;;14.80;9.05;;;;;;;;;;5006686;28;20125;-64
2022/10/01 11:46:25;;;;;;;16.52;10.80;;;;;;;;;;5008550;28;20038;-66
2022/10/01 11:48:57;;;;;;;19.27;11.48;;;;;;;;;;5008474;28;20069;-65
2022/10/01 11:51:26;;;;;;;20.02;11.32;;;;;;;;;;5000622;28;20049;-64
2022/10/01 11:53:59;;;;;;;18.50;11.90;;;;;;;;;;5008273;28;20052;-64
2022/10/01 11:59:48;;;;;;;20.50;12.20;;;;;;;;;;4972979;28;20049;-64
2022/10/01 12:02:27;;;;;;;19.58;11.10;;;;;;;;;;5006894;28;20525;-63
2022/10/01 12:04:57;;;;;;;23.52;11.77;;;;;;;;;;5007158;28;20229;-65
2022/10/01 12:07:37;;;;;;;19.13;11.73;;;;;;;;;;5005545;28;20069;-66
2022/10/01 12:10:16;;;;;;;23.95;13.18;;;;;;;;;;5005585;28;20045;-66
2022/10/01 12:12:48;;;;;;;22.30;13.00;;;;;;;;;;4985876;28;20026;-65
2022/10/01 12:15:18;;;;;;;18.88;12.07;;;;;;;;;;4997749;28;20046;-65
2022/10/01 12:17:47;;;;;;;22.38;12.55;;;;;;;;;;5006111;28;20053;-65
2022/10/01 12:20:27;;;;;;;25.45;13.15;;;;;;;;;;5005262;28;20038;-65
2022/10/01 12:22:55;;;;;;;23.92;13.63;;;;;;;;;;4995379;28;20080;-67
2022/10/01 12:25:26;;;;;;;25.08;12.38;;;;;;;;;;4991402;28;20076;-65
2022/10/01 12:27:52;;;;;;;25.90;11.48;;;;;;;;;;5009421;28;20132;-65
2022/10/01 12:30:23;;;;;;;18.77;11.25;;;;;;;;;;5006248;28;20376;-65
2022/10/01 12:33:14;;;;;;;25.52;12.15;;;;;;;;;;5004375;28;20586;-65
2022/10/01 12:35:41;;;;;;;18.83;11.73;;;;;;;;;;5000926;28;20037;-65
2022/10/01 12:38:08;;;;;;;17.42;10.90;;;;;;;;;;5003437;28;20095;-67
2022/10/01 12:40:40;;;;;;;24.17;11.63;;;;;;;;;;5003365;28;20466;-64
2022/10/01 12:43:19;;;;;;;21.48;11.93;;;;;;;;;;5004583;28;20041;-66
2022/10/01 12:45:57;;;;;;;26.73;11.80;;;;;;;;;;5005954;28;20041;-66
2022/10/01 12:48:31;;;;;;;18.38;12.20;;;;;;;;;;5005958;28;20038;-65
2022/10/01 12:50:57;;;;;;;17.40;10.98;;;;;;;;;;4984505;28;20139;-64
2022/10/01 12:53:39;;;;;;;20.98;11.10;;;;;;;;;;5005080;28;20064;-64
2022/10/01 12:56:29;;;;;;;21.33;10.40;;;;;;;;;;4987374;28;20073;-65
2022/10/01 12:59:06;;;;;;;23.13;10.52;;;;;;;;;;5004100;28;20104;-65
2022/10/01 13:01:52;;;;;;;17.02;10.57;;;;;;;;;;4985388;28;20064;-64
2022/10/01 13:04:37;;;;;;;18.42;10.63;;;;;;;;;;5005908;28;20038;-64
2022/10/01 13:07:06;;;;;;;20.40;11.02;;;;;;;;;;5004848;28;20281;-65
2022/10/01 13:09:39;;;;;;;17.92;10.80;;;;;;;;;;5002555;28;20142;-66
2022/10/01 13:12:12;;;;;;;21.80;11.20;;;;;;;;;;5005167;28;20938;-64
2022/10/01 13:14:43;;;;;;;19.67;10.98;;;;;;;;;;5005844;28;20153;-65
2022/10/01 13:17:12;;;;;;;26.35;11.63;;;;;;;;;;5004830;28;20046;-66
2022/10/01 13:19:39;;;;;;;25.00;12.65;;;;;;;;;;5004212;28;20112;-65
2022/10/01 13:22:14;;;;;;;18.38;11.48;;;;;;;;;;5010205;28;20104;-65
2022/10/01 13:24:53;;;;;;;20.42;11.15;;;;;;;;;;5006721;28;20125;-64
2022/10/01 13:27:38;;;;;;;22.83;12.15;;;;;;;;;;5007022;28;21022;-65
2022/10/01 13:30:13;;;;;;;17.98;10.50;;;;;;;;;;5007802;28;20050;-65
2022/10/01 13:32:56;;;;;;;16.92;11.02;;;;;;;;;;5008279;28;20044;-67
2022/10/01 13:35:29;;;;;;;16.27;10.50;;;;;;;;;;5006970;28;20043;-66
2022/10/01 13:37:56;;;;;;;21.55;11.77;;;;;;;;;;5008922;28;20046;-65
2022/10/01 13:40:24;;;;;;;19.45;10.85;;;;;;;;;;5008218;28;20046;-63
2022/10/01 13:42:52;;;;;;;18.85;10.30;;;;;;;;;;4992920;28;20041;-66
2022/10/01 13:45:22;;;;;;;19.67;10.77;;;;;;;;;;5004809;28;20766;-65
2022/10/01 13:47:49;;;;;;;21.90;11.07;;;;;;;;;;5008027;28;20517;-66
2022/10/01 13:50:24;;;;;;;20.48;12.18;;;;;;;;;;5008387;28;20072;-65
2022/10/01 13:52:52;;;;;;;16.70;10.95;;;;;;;;;;5007715;28;20052;-65
2022/10/01 13:55:29;;;;;;;21.33;11.93;;;;;;;;;;4990121;28;20065;-68
2022/10/01 13:58:05;;;;;;;25.75;10.75;;;;;;;;;;5008481;28;20046;-65
2022/10/01 14:00:33;;;;;;;28.05;11.93;;;;;;;;;;4998728;28;20046;-65
2022/10/01 14:03:22;;;;;;;22.48;11.55;;;;;;;;;;5010108;28;20065;-66
2022/10/01 14:05:52;;;;;;;20.65;11.50;;;;;;;;;;5008291;28;20129;-64
2022/10/01 14:08:25;;;;;;;18.75;11.13;;;;;;;;;;4993334;28;20045;-62
2022/10/01 14:16:30;;;;;;;19.42;11.20;;;;;;;;;;5009436;28;20135;-63
2022/10/01 14:18:57;;;;;;;30.15;12.82;;;;;;;;;;4996433;28;20141;-64
2022/10/01 14:21:30;;;;;;;21.42;13.50;;;;;;;;;;5007196;28;20513;-64
2022/10/01 14:23:59;;;;;;;22.77;13.00;;;;;;;;;;5009184;28;20140;-63
2022/10/01 14:26:44;;;;;;;23.15;12.50;;;;;;;;;;4990389;28;20049;-60
2022/10/01 14:29:17;;;;;;;32.10;12.88;;;;;;;;;;5006472;28;20058;-64
2022/10/01 14:31:55;;;;;;;22.23;12.63;;;;;;;;;;5008860;28;20041;-64
2022/10/01 14:35:00;;;;;;;23.52;13.15;;;;;;;;;;5007895;28;20295;-67
2022/10/01 14:37:28;;;;;;;17.08;12.20;;;;;;;;;;4935519;28;20074;-66
2022/10/01 14:40:01;;;;;;;20.58;13.35;;;;;;;;;;4955101;28;20054;-64
2022/10/01 14:42:27;;;;;;;;;;;;;;;;;;4981554;28;20072;-65
2022/10/01 14:44:54;;;;;;;21.75;12.25;;;;;;;;;;5008630;28;20002;-65
2022/10/01 14:47:22;;;;;;;21.52;13.15;;;;;;;;;;5006843;28;20072;-66
2022/10/01 14:49:49;;;;;;;17.25;12.20;;;;;;;;;;5004815;28;20042;-64
2022/10/01 14:52:21;;;;;;;21.88;14.23;;;;;;;;;;5007529;28;20038;-64
2022/10/01 14:54:50;;;;;;;20.83;14.73;;;;;;;;;;5006844;28;20038;-64
2022/10/01 14:57:24;;;;;;;21.80;13.48;;;;;;;;;;5007924;28;20137;-68